createdAt,value
2022-08-29T00:01:05.572Z,16.50
2022-08-29T00:03:32.787Z,16.50
2022-08-29T00:05:59.588Z,16.50
2022-08-29T00:08:27.144Z,16.50
2022-08-29T00:10:54.032Z,16.50
2022-08-29T00:13:21.991Z,16.50
2022-08-29T00:15:50.464Z,16.50
2022-08-29T00:18:19.564Z,16.50
2022-08-29T00:20:47.042Z,16.50
2022-08-29T00:23:14.129Z,16.50
2022-08-29T00:25:40.945Z,16.50
2022-08-29T00:28:07.908Z,16.50
2022-08-29T00:30:35.916Z,16.50
2022-08-29T00:33:03.515Z,16.60
2022-08-29T00:35:34.425Z,16.60
2022-08-29T00:38:02.338Z,16.60
2022-08-29T00:40:56.461Z,16.60
2022-08-29T00:43:27.178Z,16.60
2022-08-29T00:46:09.162Z,16.50
2022-08-29T00:48:39.124Z,16.50
2022-08-29T00:51:08.905Z,16.50
2022-08-29T00:53:39.685Z,16.50
2022-08-29T00:56:08.431Z,16.50
2022-08-29T00:58:47.589Z,16.40
2022-08-29T01:01:14.499Z,16.40
2022-08-29T01:03:43.093Z,16.40
2022-08-29T01:06:11.297Z,16.40
2022-08-29T01:08:38.117Z,16.30
2022-08-29T01:11:24.185Z,16.30
2022-08-29T01:13:52.874Z,16.30
2022-08-29T01:16:20.885Z,16.30
2022-08-29T01:18:51.143Z,16.20
2022-08-29T01:21:36.249Z,16.20
2022-08-29T01:24:15.238Z,16.20
2022-08-29T01:26:44.508Z,16.20
2022-08-29T01:29:11.416Z,16.20
2022-08-29T01:31:56.973Z,16.20
2022-08-29T01:34:32.406Z,16.20
2022-08-29T01:37:01.921Z,16.20
2022-08-29T01:39:31.995Z,16.20
2022-08-29T01:42:03.909Z,16.20
2022-08-29T01:44:32.549Z,16.20
2022-08-29T01:47:02.782Z,16.20
2022-08-29T01:49:34.852Z,16.20
2022-08-29T01:52:05.721Z,16.20
2022-08-29T01:54:32.848Z,16.20
2022-08-29T01:57:01.439Z,16.20
2022-08-29T01:59:29.866Z,16.20
2022-08-29T02:02:02.302Z,16.30
2022-08-29T02:04:29.287Z,16.30
2022-08-29T02:06:56.246Z,16.30
2022-08-29T02:09:24.308Z,16.30
2022-08-29T02:11:52.460Z,16.30
2022-08-29T02:14:19.918Z,16.30
2022-08-29T02:16:47.804Z,16.30
2022-08-29T02:19:15.526Z,16.30
2022-08-29T02:21:42.799Z,16.40
2022-08-29T02:24:24.288Z,16.40
2022-08-29T02:26:53.029Z,16.40
2022-08-29T02:29:19.970Z,16.40
2022-08-29T02:31:46.990Z,16.40
2022-08-29T02:34:14.140Z,16.40
2022-08-29T02:36:41.537Z,16.40
2022-08-29T02:39:08.945Z,16.40
2022-08-29T02:41:36.183Z,16.40
2022-08-29T02:44:05.010Z,16.40
2022-08-29T02:46:32.285Z,16.40
2022-08-29T02:49:00.904Z,16.40
2022-08-29T02:51:32.166Z,16.40
2022-08-29T02:53:59.991Z,16.40
2022-08-29T02:56:27.470Z,16.40
2022-08-29T02:58:54.297Z,16.40
2022-08-29T03:01:23.047Z,16.40
2022-08-29T03:03:50.810Z,16.40
2022-08-29T03:06:19.049Z,16.40
2022-08-29T03:08:46.185Z,16.40
2022-08-29T03:11:13.980Z,16.40
2022-08-29T03:13:40.954Z,16.40
2022-08-29T03:16:08.983Z,16.30
2022-08-29T03:18:36.168Z,16.30
2022-08-29T03:21:02.963Z,16.20
2022-08-29T03:23:29.803Z,16.20
2022-08-29T03:25:56.678Z,16.20
2022-08-29T03:28:23.471Z,16.20
2022-08-29T03:30:50.372Z,16.20
2022-08-29T03:33:17.742Z,16.20
2022-08-29T03:35:44.577Z,16.20
2022-08-29T03:38:11.505Z,16.20
2022-08-29T03:40:41.432Z,16.20
2022-08-29T03:43:09.471Z,16.20
2022-08-29T03:45:36.617Z,16.20
2022-08-29T03:48:03.963Z,16.20
2022-08-29T03:50:30.897Z,16.20
2022-08-29T03:52:57.734Z,16.20
2022-08-29T03:55:24.568Z,16.20
2022-08-29T03:57:51.430Z,16.20
2022-08-29T04:00:19.789Z,16.20
2022-08-29T04:02:47.787Z,16.20
2022-08-29T04:05:18.118Z,16.20
2022-08-29T04:07:53.935Z,16.20
2022-08-29T04:10:30.850Z,16.20
2022-08-29T04:12:58.523Z,16.20
2022-08-29T04:15:26.582Z,16.20
2022-08-29T04:17:55.318Z,16.30
2022-08-29T04:20:25.678Z,16.30
2022-08-29T04:22:54.575Z,16.30
2022-08-29T04:25:23.016Z,16.30
2022-08-29T04:27:49.866Z,16.30
2022-08-29T04:30:19.075Z,16.30
2022-08-29T04:32:45.833Z,16.30
2022-08-29T04:35:14.329Z,16.30
2022-08-29T04:37:42.207Z,16.30
2022-08-29T04:40:11.072Z,16.30
2022-08-29T04:42:38.625Z,16.30
2022-08-29T04:45:07.191Z,16.30
2022-08-29T04:47:37.365Z,16.30
2022-08-29T04:50:05.144Z,16.30
2022-08-29T04:52:32.048Z,16.30
2022-08-29T04:55:00.105Z,16.30
2022-08-29T04:57:26.929Z,16.30
2022-08-29T04:59:58.860Z,16.20
2022-08-29T05:02:27.697Z,16.30
2022-08-29T05:04:56.610Z,16.30
2022-08-29T05:07:25.791Z,16.30
2022-08-29T05:09:58.750Z,16.30
2022-08-29T05:12:27.827Z,16.20
2022-08-29T05:14:54.756Z,16.30
2022-08-29T05:17:22.308Z,16.30
2022-08-29T05:19:49.457Z,16.30
2022-08-29T05:22:17.232Z,16.30
2022-08-29T05:24:44.434Z,16.30
2022-08-29T05:27:17.161Z,16.30
2022-08-29T05:29:45.749Z,16.30
2022-08-29T05:32:18.740Z,16.30
2022-08-29T05:34:46.579Z,16.30
2022-08-29T05:37:16.582Z,16.30
2022-08-29T05:39:43.591Z,16.30
2022-08-29T05:42:11.958Z,16.40
2022-08-29T05:44:39.483Z,16.40
2022-08-29T05:47:11.008Z,16.50
2022-08-29T05:49:43.452Z,16.50
2022-08-29T05:52:11.317Z,16.50
2022-08-29T05:54:41.361Z,16.50
2022-08-29T05:57:09.705Z,16.60
2022-08-29T05:59:37.426Z,16.60
2022-08-29T06:02:05.967Z,16.70
2022-08-29T06:04:32.794Z,16.70
2022-08-29T06:06:59.774Z,16.70
2022-08-29T06:09:26.899Z,16.80
2022-08-29T06:11:53.742Z,16.80
2022-08-29T06:14:20.822Z,16.80
2022-08-29T06:16:47.907Z,16.80
2022-08-29T06:19:15.005Z,16.90
2022-08-29T06:21:42.127Z,16.90
2022-08-29T06:24:09.443Z,16.90
2022-08-29T06:26:36.487Z,17.00
2022-08-29T06:29:06.576Z,17.00
2022-08-29T06:31:33.739Z,17.00
2022-08-29T06:34:05.002Z,17.00
2022-08-29T06:36:32.748Z,17.00
2022-08-29T06:39:04.026Z,16.90
2022-08-29T06:41:30.976Z,16.90
2022-08-29T06:43:57.912Z,17.00
2022-08-29T06:46:27.434Z,17.00
2022-08-29T06:48:55.233Z,17.00
2022-08-29T06:51:22.559Z,17.00
2022-08-29T06:53:52.000Z,17.10
2022-08-29T06:56:19.288Z,17.10
2022-08-29T06:58:47.566Z,17.10
2022-08-29T07:01:17.314Z,17.10
2022-08-29T07:03:45.805Z,17.00
2022-08-29T07:06:13.231Z,17.00
2022-08-29T07:08:46.737Z,17.00
2022-08-29T07:11:27.140Z,17.00
2022-08-29T07:13:57.078Z,17.00
2022-08-29T07:16:24.036Z,17.10
2022-08-29T07:18:53.440Z,17.10
2022-08-29T07:21:21.979Z,17.10
2022-08-29T07:23:50.570Z,17.10
2022-08-29T07:26:21.361Z,17.10
2022-08-29T07:28:50.246Z,17.10
2022-08-29T07:31:17.686Z,17.10
2022-08-29T07:33:44.754Z,17.10
2022-08-29T07:36:12.259Z,17.20
2022-08-29T07:38:39.519Z,17.20
2022-08-29T07:41:15.978Z,17.20
2022-08-29T07:43:43.637Z,17.30
2022-08-29T07:46:13.361Z,17.30
2022-08-29T07:48:41.000Z,17.40
2022-08-29T07:51:10.822Z,17.50
2022-08-29T07:53:38.138Z,17.60
2022-08-29T07:56:07.554Z,17.70
2022-08-29T07:58:34.511Z,17.70
2022-08-29T08:01:01.446Z,17.70
2022-08-29T08:03:28.717Z,17.70
2022-08-29T08:05:55.755Z,17.80
2022-08-29T08:08:22.681Z,17.90
2022-08-29T08:10:52.152Z,17.90
2022-08-29T08:13:19.350Z,17.90
2022-08-29T08:15:46.307Z,17.90
2022-08-29T08:18:16.444Z,17.90
2022-08-29T08:20:48.477Z,18.00
2022-08-29T08:23:16.927Z,18.10
2022-08-29T08:25:44.556Z,18.10
2022-08-29T08:28:15.189Z,18.10
2022-08-29T08:30:42.630Z,18.10
2022-08-29T08:33:10.074Z,18.20
2022-08-29T08:35:41.963Z,18.30
2022-08-29T08:38:09.379Z,18.30
2022-08-29T08:40:45.375Z,18.20
2022-08-29T08:43:15.628Z,18.20
2022-08-29T08:45:53.880Z,18.30
2022-08-29T08:48:26.046Z,18.30
2022-08-29T08:51:15.366Z,18.40
2022-08-29T08:53:49.263Z,18.40
2022-08-29T08:56:37.690Z,18.40
2022-08-29T08:59:16.258Z,18.40
2022-08-29T09:01:56.375Z,18.40
2022-08-29T09:04:37.316Z,18.40
2022-08-29T09:07:16.229Z,18.40
2022-08-29T09:10:04.821Z,18.40
2022-08-29T09:12:56.800Z,18.40
2022-08-29T09:15:32.843Z,18.40
2022-08-29T09:18:05.488Z,18.40
2022-08-29T09:20:36.743Z,18.30
2022-08-29T09:23:25.751Z,18.30
2022-08-29T09:25:52.627Z,18.20
2022-08-29T09:28:20.051Z,18.20
2022-08-29T09:31:24.421Z,18.20
2022-08-29T09:33:58.206Z,18.10
2022-08-29T09:36:51.898Z,18.20
2022-08-29T09:39:31.268Z,18.30
2022-08-29T09:42:12.765Z,18.20
2022-08-29T09:44:41.457Z,18.20
2022-08-29T09:47:17.195Z,18.20
2022-08-29T09:50:04.077Z,18.20
2022-08-29T09:52:32.785Z,18.20
2022-08-29T09:55:36.549Z,18.30
2022-08-29T09:58:16.629Z,18.20
2022-08-29T10:00:58.498Z,18.20
2022-08-29T10:03:26.365Z,18.20
2022-08-29T10:06:15.817Z,18.10
2022-08-29T10:08:54.541Z,18.00
2022-08-29T10:11:28.330Z,18.00
2022-08-29T10:13:58.975Z,17.90
2022-08-29T10:16:56.888Z,17.80
2022-08-29T10:19:32.975Z,17.80
2022-08-29T10:22:17.914Z,17.80
2022-08-29T10:25:16.512Z,17.80
2022-08-29T10:27:58.554Z,17.90
2022-08-29T10:30:44.689Z,17.90
2022-08-29T10:33:36.143Z,18.00
2022-08-29T10:36:23.947Z,18.10
2022-08-29T10:39:12.362Z,18.10
2022-08-29T10:41:46.006Z,18.10
2022-08-29T10:44:28.400Z,18.10
2022-08-29T10:47:04.296Z,18.10
2022-08-29T10:49:34.007Z,18.10
2022-08-29T10:52:29.097Z,18.10
2022-08-29T10:55:33.163Z,18.30
2022-08-29T10:58:22.997Z,18.30
2022-08-29T11:00:55.852Z,18.50
2022-08-29T11:03:40.328Z,18.50
2022-08-29T11:06:59.856Z,18.60
2022-08-29T11:09:43.797Z,18.50
2022-08-29T11:12:45.085Z,18.50
2022-08-29T11:15:39.161Z,18.50
2022-08-29T11:18:24.375Z,18.40
2022-08-29T11:20:56.626Z,18.30
2022-08-29T11:23:58.192Z,18.20
2022-08-29T11:26:44.662Z,18.20
2022-08-29T11:29:34.748Z,18.10
2022-08-29T11:32:01.523Z,18.10
2022-08-29T11:34:46.484Z,18.20
2022-08-29T11:37:25.643Z,18.30
2022-08-29T11:39:52.424Z,18.40
2022-08-29T11:45:13.113Z,18.40
2022-08-29T11:47:47.228Z,18.40
2022-08-29T11:50:17.119Z,18.40
2022-08-29T11:53:03.273Z,18.40
2022-08-29T11:55:39.480Z,18.40
2022-08-29T11:58:27.980Z,18.40
2022-08-29T12:00:57.539Z,18.30
2022-08-29T12:03:34.481Z,18.20
2022-08-29T12:06:26.375Z,18.10
2022-08-29T12:09:13.669Z,18.10
2022-08-29T12:12:02.617Z,18.10
2022-08-29T12:14:37.697Z,18.20
2022-08-29T12:17:08.145Z,18.20
2022-08-29T12:19:53.975Z,18.10
2022-08-29T12:22:51.833Z,18.00
2022-08-29T12:25:28.116Z,18.00
2022-08-29T12:28:01.271Z,18.00
2022-08-29T12:30:31.611Z,18.00
2022-08-29T12:33:36.198Z,18.00
2022-08-29T12:36:52.507Z,17.90
2022-08-29T12:39:53.022Z,17.90
2022-08-29T12:42:38.697Z,17.80
2022-08-29T12:45:12.827Z,17.80
2022-08-29T12:47:46.086Z,17.80
2022-08-29T12:50:30.426Z,17.80
2022-08-29T12:53:02.599Z,17.80
2022-08-29T12:55:35.538Z,17.80
2022-08-29T12:58:02.712Z,17.80
2022-08-29T13:00:31.886Z,17.80
2022-08-29T13:03:15.027Z,17.90
2022-08-29T13:05:43.810Z,18.00
2022-08-29T13:08:14.438Z,18.00
2022-08-29T13:10:53.467Z,18.10
2022-08-29T13:13:22.498Z,18.10
2022-08-29T13:15:54.106Z,18.20
2022-08-29T13:18:22.028Z,18.20
2022-08-29T13:21:14.003Z,18.20
2022-08-29T13:23:45.977Z,18.10
2022-08-29T13:26:14.220Z,18.00
2022-08-29T13:28:53.349Z,17.90
2022-08-29T13:31:21.421Z,17.90
2022-08-29T13:33:51.349Z,17.80
2022-08-29T13:36:27.414Z,17.80
2022-08-29T13:39:21.829Z,17.70
2022-08-29T13:41:51.525Z,17.60
2022-08-29T13:44:26.205Z,17.60
2022-08-29T13:46:54.488Z,17.50
2022-08-29T13:49:25.983Z,17.50
2022-08-29T13:51:52.972Z,17.40
2022-08-29T13:54:20.420Z,17.40
2022-08-29T13:56:49.109Z,17.40
2022-08-29T13:59:25.983Z,17.40
2022-08-29T14:02:10.455Z,17.40
2022-08-29T14:04:40.341Z,17.40
2022-08-29T14:07:09.464Z,17.50
2022-08-29T14:09:44.488Z,17.60
2022-08-29T14:12:12.688Z,17.60
2022-08-29T14:14:40.221Z,17.70
2022-08-29T14:17:07.319Z,17.80
2022-08-29T14:19:35.263Z,17.80
2022-08-29T14:22:02.813Z,17.90
2022-08-29T14:24:30.984Z,17.90
2022-08-29T14:27:01.576Z,17.90
2022-08-29T14:29:30.814Z,17.90
2022-08-29T14:31:58.762Z,17.90
2022-08-29T14:34:30.759Z,17.90
2022-08-29T14:36:59.703Z,17.90
2022-08-29T14:39:26.702Z,17.90
2022-08-29T14:41:54.734Z,17.90
2022-08-29T14:44:22.276Z,18.00
2022-08-29T14:46:49.861Z,18.00
2022-08-29T14:49:17.253Z,18.00
2022-08-29T14:51:46.905Z,17.90
2022-08-29T14:54:13.790Z,17.90
2022-08-29T14:56:48.686Z,17.90
2022-08-29T14:59:17.083Z,17.80
2022-08-29T15:01:44.010Z,17.80
2022-08-29T15:04:11.048Z,17.70
2022-08-29T15:06:38.505Z,17.70
2022-08-29T15:09:05.525Z,17.70
2022-08-29T15:11:33.424Z,17.70
2022-08-29T15:14:04.439Z,17.70
2022-08-29T15:16:32.231Z,17.80
2022-08-29T15:19:53.275Z,17.80
2022-08-29T15:21:46.485Z,17.80
2022-08-29T15:24:13.301Z,17.80
2022-08-29T15:26:40.205Z,17.80
2022-08-29T15:29:08.896Z,17.80
2022-08-29T15:31:35.876Z,17.80
2022-08-29T15:34:02.759Z,17.90
2022-08-29T15:36:29.715Z,17.90
2022-08-29T15:38:56.542Z,17.90
2022-08-29T15:41:23.368Z,17.90
2022-08-29T15:43:50.226Z,17.90
2022-08-29T15:46:17.119Z,17.90
2022-08-29T15:48:45.645Z,18.00
2022-08-29T15:51:13.741Z,18.00
2022-08-29T15:53:40.699Z,18.00
2022-08-29T15:56:07.985Z,18.00
2022-08-29T15:58:34.912Z,18.00
2022-08-29T16:01:02.930Z,18.00
2022-08-29T16:03:29.783Z,18.00
2022-08-29T16:05:57.153Z,18.00
2022-08-29T16:08:29.623Z,18.10
2022-08-29T16:10:56.950Z,18.10
2022-08-29T16:13:23.824Z,18.10
2022-08-29T16:15:51.090Z,18.00
2022-08-29T16:18:18.638Z,18.00
2022-08-29T16:20:45.426Z,18.00
2022-08-29T16:23:12.305Z,18.00
2022-08-29T16:25:39.626Z,17.90
2022-08-29T16:28:06.483Z,18.00
2022-08-29T16:30:33.624Z,17.90
2022-08-29T16:33:01.569Z,17.90
2022-08-29T16:35:28.485Z,17.90
2022-08-29T16:38:02.612Z,18.00
2022-08-29T16:40:30.494Z,18.00
2022-08-29T16:42:57.444Z,17.90
2022-08-29T16:45:24.313Z,17.90
2022-08-29T16:47:55.296Z,18.00
2022-08-29T16:50:24.688Z,18.00
2022-08-29T16:52:51.666Z,18.00
2022-08-29T16:55:18.490Z,18.00
2022-08-29T16:58:05.256Z,18.00
2022-08-29T17:00:32.303Z,18.00
2022-08-29T17:02:59.679Z,18.00
2022-08-29T17:05:27.190Z,17.90
2022-08-29T17:07:53.941Z,17.90
2022-08-29T17:10:20.729Z,17.90
2022-08-29T17:12:47.485Z,17.90
2022-08-29T17:15:14.305Z,17.80
2022-08-29T17:17:41.142Z,17.80
2022-08-29T17:20:08.517Z,17.80
2022-08-29T17:22:35.548Z,17.70
2022-08-29T17:25:02.374Z,17.70
2022-08-29T17:27:30.197Z,17.60
2022-08-29T17:29:57.240Z,17.60
2022-08-29T17:32:24.150Z,17.60
2022-08-29T17:34:51.105Z,17.50
2022-08-29T17:37:17.897Z,17.50
2022-08-29T17:39:47.838Z,17.40
2022-08-29T17:42:14.699Z,17.40
2022-08-29T17:44:41.812Z,17.30
2022-08-29T17:47:08.624Z,17.30
2022-08-29T17:49:35.407Z,17.20
2022-08-29T17:52:02.541Z,17.20
2022-08-29T17:54:29.478Z,17.10
2022-08-29T17:56:58.786Z,17.10
2022-08-29T17:59:28.411Z,17.00
2022-08-29T18:01:55.633Z,16.90
2022-08-29T18:04:22.775Z,16.80
2022-08-29T18:06:51.785Z,16.70
2022-08-29T18:09:19.588Z,16.60
2022-08-29T18:11:47.656Z,16.50
2022-08-29T18:14:14.675Z,16.40
2022-08-29T18:16:41.738Z,16.30
2022-08-29T18:19:08.942Z,16.20
2022-08-29T18:21:35.887Z,16.10
2022-08-29T18:24:03.408Z,16.00
2022-08-29T18:26:30.281Z,15.90
2022-08-29T18:28:57.603Z,15.90
2022-08-29T18:31:24.500Z,15.80
2022-08-29T18:34:06.693Z,15.80
2022-08-29T18:36:36.010Z,15.70
2022-08-29T18:42:36.862Z,15.60
2022-08-29T18:45:07.867Z,15.50
2022-08-29T18:47:35.365Z,15.50
2022-08-29T18:50:24.939Z,15.40
2022-08-29T18:52:53.162Z,15.40
2022-08-29T18:55:20.560Z,15.30
2022-08-29T18:57:48.343Z,15.30
2022-08-29T19:00:16.395Z,15.20
2022-08-29T19:02:43.482Z,15.20
2022-08-29T19:05:13.143Z,15.10
2022-08-29T19:07:40.011Z,15.10
2022-08-29T19:10:11.122Z,15.00
2022-08-29T19:12:38.252Z,15.00
2022-08-29T19:15:10.164Z,15.00
2022-08-29T19:17:38.293Z,14.90
2022-08-29T19:20:27.659Z,14.80
2022-08-29T19:22:54.746Z,14.80
2022-08-29T19:25:21.991Z,14.70
2022-08-29T19:27:48.887Z,14.70
2022-08-29T19:30:17.700Z,14.60
2022-08-29T19:32:44.550Z,14.60
2022-08-29T19:35:12.899Z,14.60
2022-08-29T19:37:43.895Z,14.60
2022-08-29T19:40:12.579Z,14.60
2022-08-29T19:42:39.501Z,14.60
2022-08-29T19:45:10.851Z,14.50
2022-08-29T19:47:38.136Z,14.50
2022-08-29T19:50:07.530Z,14.50
2022-08-29T19:52:34.746Z,14.40
2022-08-29T19:55:09.029Z,14.40
2022-08-29T19:57:36.339Z,14.40
2022-08-29T20:00:13.952Z,14.30
2022-08-29T20:02:43.402Z,14.30
2022-08-29T20:05:13.786Z,14.20
2022-08-29T20:07:41.826Z,14.20
2022-08-29T20:10:21.118Z,14.20
2022-08-29T20:12:54.377Z,14.20
2022-08-29T20:15:22.836Z,14.10
2022-08-29T20:18:06.067Z,14.10
2022-08-29T20:20:35.938Z,14.00
2022-08-29T20:23:04.444Z,14.00
2022-08-29T20:25:32.474Z,14.00
2022-08-29T20:27:59.426Z,13.90
2022-08-29T20:30:28.925Z,13.90
2022-08-29T20:32:56.090Z,13.90
2022-08-29T20:35:42.688Z,13.80
2022-08-29T20:38:10.716Z,13.80
2022-08-29T20:40:39.616Z,13.70
2022-08-29T20:43:07.111Z,13.70
2022-08-29T20:45:34.528Z,13.70
2022-08-29T20:48:02.077Z,13.60
2022-08-29T20:52:55.757Z,13.50
2022-08-29T20:55:23.146Z,13.40
2022-08-29T20:57:50.327Z,13.40
2022-08-29T21:00:19.772Z,13.40
2022-08-29T21:03:06.427Z,13.30
2022-08-29T21:05:59.760Z,13.30
2022-08-29T21:08:26.728Z,13.20
2022-08-29T21:10:55.195Z,13.20
2022-08-29T21:13:22.645Z,13.10
2022-08-29T21:15:50.345Z,13.10
2022-08-29T21:18:19.042Z,13.00
2022-08-29T21:20:53.834Z,13.00
2022-08-29T21:23:22.840Z,12.90
2022-08-29T21:25:58.043Z,12.90
2022-08-29T21:28:25.526Z,12.90
2022-08-29T21:30:53.196Z,12.80
2022-08-29T21:33:20.817Z,12.80
2022-08-29T21:35:50.068Z,12.80
2022-08-29T21:38:17.698Z,12.70
2022-08-29T21:40:51.157Z,12.70
2022-08-29T21:43:19.805Z,12.70
2022-08-29T21:45:47.445Z,12.70
2022-08-29T21:48:14.390Z,12.80
2022-08-29T21:50:41.465Z,12.80
2022-08-29T21:53:10.963Z,12.80
2022-08-29T21:55:37.798Z,12.70
2022-08-29T21:58:04.696Z,12.70
2022-08-29T22:00:35.352Z,12.70
2022-08-29T22:03:05.364Z,12.60
2022-08-29T22:05:33.711Z,12.60
2022-08-29T22:08:03.138Z,12.60
2022-08-29T22:10:33.215Z,12.60
2022-08-29T22:13:00.668Z,12.60
2022-08-29T22:15:46.040Z,12.60
2022-08-29T22:18:15.951Z,12.60
2022-08-29T22:20:44.055Z,12.50
2022-08-29T22:23:11.059Z,12.50
2022-08-29T22:25:37.911Z,12.40
2022-08-29T22:28:05.112Z,12.40
2022-08-29T22:30:33.106Z,12.40
2022-08-29T22:33:01.154Z,12.40
2022-08-29T22:35:28.831Z,12.40
2022-08-29T22:37:55.744Z,12.40
2022-08-29T22:40:23.030Z,12.50
2022-08-29T22:42:49.983Z,12.50
2022-08-29T22:45:18.056Z,12.60
2022-08-29T22:47:46.654Z,12.60
2022-08-29T22:50:16.750Z,12.60
2022-08-29T22:52:43.690Z,12.60
2022-08-29T22:55:13.504Z,12.60
2022-08-29T22:57:42.687Z,12.70
2022-08-29T23:00:11.105Z,12.70
2022-08-29T23:02:38.553Z,12.70
2022-08-29T23:05:09.577Z,12.70
2022-08-29T23:07:37.033Z,12.70
2022-08-29T23:10:06.314Z,12.70
2022-08-29T23:12:36.045Z,12.70
2022-08-29T23:15:09.362Z,12.70
2022-08-29T23:17:36.541Z,12.70
2022-08-29T23:20:05.213Z,12.60
2022-08-29T23:22:32.009Z,12.60
2022-08-29T23:24:59.244Z,12.70
2022-08-29T23:27:30.588Z,12.70
2022-08-29T23:29:58.572Z,12.70
2022-08-29T23:32:25.747Z,12.70
2022-08-29T23:34:52.723Z,12.70
2022-08-29T23:37:19.579Z,12.70
2022-08-29T23:39:46.756Z,12.70
2022-08-29T23:42:13.590Z,12.70
2022-08-29T23:44:40.440Z,12.70
2022-08-29T23:47:08.562Z,12.70
2022-08-29T23:49:35.690Z,12.70
2022-08-29T23:52:03.422Z,12.70
2022-08-29T23:54:31.431Z,12.70
2022-08-29T23:56:58.288Z,12.60
2022-08-29T23:59:43.669Z,12.60
